Strona główna
METAR-TAF:

METAR-TAF

Lotnisko :

Port lotniczy Moskwa-Szeremietiewo

Moskwa-Szeremietiewo, Rosja

Szerokość geograficzna: 55-58N, Długość geograficzna: 037-25E, wysokość: 190 m

Aktualna obserwacja pogody

Raport powstał 17 minut temu, godzina 08:00 UTC
Wiatr 8 kt od zachodnio-północny zachód, zmienny między zachodnio-południowy zachód i północ
Temperatura 22°C
Wilgotność 31%
Ciśnienie 1024 hPa
Widzialność 10 km lub więcej
Brak chmur poniżej 1500 m i brak chmur cumulonimbus

METAR: UUEE 250800Z 30004MPS 250V350 CAVOK 22/04 Q1024 R24L/CLRD62 NOSIG

czas: 11:17 (08:17 UTC)

Prognoza

Raport powstał 3 godziny i 21 minut temu, godzina 04:56 UTC
Prognoza ważna od 25 godzina 06 UTC do 26 godzina 06 UTC
Wiatr 12 kt od północny zachód
Widzialność 10 km lub więcej
Brak chmur poniżej 1500 m i brak chmur cumulonimbus
Stopniowe zmiany
od 25 godzina 15 UTC do 25 godzina 18 UTC
Wiatr 2 kt z kierunków zmiennych

TAF: UUEE 250456Z 2506/2606 32006MPS CAVOK TX22/2512Z TN08/2603Z BECMG 2515/2518 VRB01MPS

Obserwacja i prognoza pogody dla ponad 4000 lotnisk (raport METAR i TAF).

Dostępne stacje oznaczono żółtymi i czerwonymi punktami na mapie.

Najedź kursorem aby zobaczyć nazwę stacji.

Kliknij aby zobaczyć obserwacje i prognozy pogody.

Aby zmienić mapę: kliknij na zielony przycisk z czarnym krzyżykiem, aby powiększyć; na zielony przycisk z myślnikiem, aby pomniejszyć; na zielone strzałki, aby przejść do map sąsiednich.


METAR-TAF: